createdAt,value
2023-01-30T00:02:25.002Z,37.80
2023-01-30T00:05:28.332Z,37.50
2023-01-30T00:08:31.552Z,38.00
2023-01-30T00:11:34.767Z,35.00
2023-01-30T00:14:37.977Z,33.40
2023-01-30T00:17:41.253Z,39.30
2023-01-30T00:20:44.499Z,35.50
2023-01-30T00:23:47.722Z,33.50
2023-01-30T00:26:50.903Z,35.00
2023-01-30T00:30:02.538Z,32.40
2023-01-30T00:33:07.110Z,31.60
2023-01-30T00:36:10.891Z,27.10
2023-01-30T00:39:14.097Z,29.40
2023-01-30T00:42:35.725Z,30.70
2023-01-30T00:46:00.461Z,31.30
2023-01-30T00:49:03.725Z,29.10
2023-01-30T00:52:06.959Z,26.70
2023-01-30T00:55:10.331Z,26.30
2023-01-30T00:58:13.974Z,26.50
2023-01-30T01:01:17.287Z,30.50
2023-01-30T01:04:20.675Z,25.60
2023-01-30T01:07:24.730Z,30.80
2023-01-30T01:10:28.242Z,30.90
2023-01-30T01:13:31.494Z,29.40
2023-01-30T01:16:35.751Z,27.50
2023-01-30T01:19:39.035Z,27.60
2023-01-30T01:22:42.934Z,25.60
2023-01-30T01:25:46.200Z,31.50
2023-01-30T01:28:49.688Z,27.40
2023-01-30T01:31:52.912Z,26.80
2023-01-30T01:34:56.159Z,25.80
2023-01-30T01:37:59.449Z,24.30
2023-01-30T01:41:03.470Z,24.90
2023-01-30T01:44:14.554Z,28.30
2023-01-30T01:47:17.795Z,25.10
2023-01-30T01:50:25.182Z,24.60
2023-01-30T01:53:36.500Z,23.90
2023-01-30T01:56:46.276Z,24.30
2023-01-30T01:59:53.341Z,25.20
2023-01-30T02:03:00.094Z,23.40
2023-01-30T02:06:04.534Z,24.90
2023-01-30T02:09:10.304Z,25.50
2023-01-30T02:12:15.410Z,25.70
2023-01-30T02:15:20.347Z,26.90
2023-01-30T02:18:23.770Z,25.00
2023-01-30T02:22:05.558Z,26.10
2023-01-30T02:25:17.959Z,22.30
2023-01-30T02:28:21.371Z,22.60
2023-01-30T02:31:27.712Z,25.10
2023-01-30T02:34:43.115Z,24.60
2023-01-30T02:38:03.628Z,24.20
2023-01-30T02:41:06.855Z,22.10
2023-01-30T02:44:22.245Z,20.50
2023-01-30T02:47:38.477Z,24.10
2023-01-30T02:50:58.118Z,23.70
2023-01-30T02:54:01.686Z,21.10
2023-01-30T02:57:19.192Z,21.60
2023-01-30T03:00:43.152Z,23.00
2023-01-30T03:04:01.487Z,22.30
2023-01-30T03:07:10.862Z,19.80
2023-01-30T03:10:38.085Z,19.00
2023-01-30T03:13:59.562Z,18.90
2023-01-30T03:17:05.950Z,17.70
2023-01-30T03:20:10.546Z,15.50
2023-01-30T03:23:14.307Z,13.80
2023-01-30T03:26:21.311Z,14.30
2023-01-30T03:29:25.388Z,16.20
2023-01-30T03:32:28.575Z,15.50
2023-01-30T03:35:32.467Z,14.70
2023-01-30T03:38:36.204Z,14.00
2023-01-30T03:41:39.495Z,14.90
2023-01-30T03:44:42.750Z,14.50
2023-01-30T03:47:46.986Z,12.60
2023-01-30T03:50:51.635Z,12.60
2023-01-30T03:53:54.910Z,12.80
2023-01-30T03:56:58.712Z,15.00
2023-01-30T04:00:02.548Z,13.00
2023-01-30T04:03:07.819Z,13.60
2023-01-30T04:06:11.135Z,15.10
2023-01-30T04:09:14.585Z,13.30
2023-01-30T04:12:21.813Z,13.10
2023-01-30T04:15:29.987Z,14.50
2023-01-30T04:18:35.987Z,14.10
2023-01-30T04:21:46.589Z,14.80
2023-01-30T04:24:49.888Z,13.50
2023-01-30T04:27:53.115Z,13.30
2023-01-30T04:31:06.079Z,12.80
2023-01-30T04:34:15.350Z,14.00
2023-01-30T04:37:18.947Z,12.80
2023-01-30T04:40:24.514Z,11.80
2023-01-30T04:43:29.159Z,13.10
2023-01-30T04:46:57.671Z,13.80
2023-01-30T04:50:00.922Z,14.90
2023-01-30T04:53:04.309Z,15.60
2023-01-30T04:56:07.815Z,13.50
2023-01-30T04:59:11.125Z,14.60
2023-01-30T05:02:18.001Z,16.90
2023-01-30T05:05:22.192Z,16.30
2023-01-30T05:08:25.420Z,16.70
2023-01-30T05:11:29.931Z,17.70
2023-01-30T05:14:35.098Z,15.30
2023-01-30T05:17:38.811Z,15.10
2023-01-30T05:20:42.032Z,14.90
2023-01-30T05:23:45.557Z,15.30
2023-01-30T05:26:48.749Z,16.00
2023-01-30T05:29:52.107Z,16.10
2023-01-30T05:32:55.294Z,17.50
2023-01-30T05:35:59.234Z,17.00
2023-01-30T05:39:02.431Z,15.50
2023-01-30T05:42:05.889Z,16.30
2023-01-30T05:45:09.610Z,15.90
2023-01-30T05:48:12.789Z,16.70
2023-01-30T05:51:22.396Z,15.00
2023-01-30T05:54:25.586Z,27.00
2023-01-30T05:57:28.900Z,16.90
2023-01-30T06:00:32.268Z,15.60
2023-01-30T06:03:36.296Z,17.20
2023-01-30T06:06:39.549Z,17.80
2023-01-30T06:09:42.770Z,16.90
2023-01-30T06:12:46.068Z,17.70
2023-01-30T06:15:49.331Z,17.70
2023-01-30T06:18:52.544Z,16.70
2023-01-30T06:21:55.765Z,15.80
2023-01-30T06:24:58.937Z,17.10
2023-01-30T06:28:02.198Z,18.20
2023-01-30T06:31:09.208Z,14.40
2023-01-30T06:34:12.598Z,17.80
2023-01-30T06:37:15.805Z,18.10
2023-01-30T06:40:19.160Z,16.70
2023-01-30T06:43:22.456Z,18.30
2023-01-30T06:46:25.679Z,18.40
2023-01-30T06:49:28.851Z,22.00
2023-01-30T06:52:32.274Z,17.70
2023-01-30T06:55:36.434Z,19.90
2023-01-30T06:58:39.649Z,21.50
2023-01-30T07:01:42.911Z,16.70
2023-01-30T07:04:46.180Z,22.30
2023-01-30T07:07:49.374Z,19.90
2023-01-30T07:10:52.647Z,21.10
2023-01-30T07:13:55.913Z,20.00
2023-01-30T07:16:59.279Z,23.20
2023-01-30T07:20:02.540Z,20.80
2023-01-30T07:23:05.798Z,19.10
2023-01-30T07:26:09.011Z,22.70
2023-01-30T07:29:12.231Z,22.10
2023-01-30T07:32:19.228Z,19.90
2023-01-30T07:35:24.580Z,19.00
2023-01-30T07:38:27.816Z,20.60
2023-01-30T07:41:31.240Z,18.90
2023-01-30T07:44:34.448Z,21.10
2023-01-30T07:47:38.577Z,22.40
2023-01-30T07:50:42.624Z,25.40
2023-01-30T07:53:52.612Z,23.30
2023-01-30T07:56:56.013Z,24.30
2023-01-30T07:59:59.351Z,25.60
2023-01-30T08:03:02.909Z,23.40
2023-01-30T08:06:06.977Z,30.80
2023-01-30T08:09:10.547Z,33.60
2023-01-30T08:12:13.896Z,21.60
2023-01-30T08:15:18.313Z,24.80
2023-01-30T08:18:21.555Z,24.00
2023-01-30T08:21:24.833Z,26.60
2023-01-30T08:24:28.208Z,23.00
2023-01-30T08:27:31.576Z,22.90
2023-01-30T08:30:34.993Z,22.10
2023-01-30T08:33:38.427Z,25.70
2023-01-30T08:36:41.724Z,24.70
2023-01-30T08:39:44.995Z,25.10
2023-01-30T08:42:48.255Z,25.50
2023-01-30T08:45:54.731Z,22.00
2023-01-30T08:48:58.098Z,24.10
2023-01-30T08:52:03.500Z,22.40
2023-01-30T08:55:07.149Z,25.70
2023-01-30T08:58:10.430Z,23.70
2023-01-30T09:01:13.775Z,23.60
2023-01-30T09:04:17.132Z,24.70
2023-01-30T09:07:20.505Z,24.40
2023-01-30T09:10:26.103Z,22.40
2023-01-30T09:13:30.073Z,22.20
2023-01-30T09:16:33.404Z,19.00
2023-01-30T09:19:37.312Z,20.10
2023-01-30T09:22:40.819Z,21.10
2023-01-30T09:25:47.519Z,22.90
2023-01-30T09:28:50.861Z,25.90
2023-01-30T09:31:56.639Z,24.00
2023-01-30T09:35:00.001Z,22.80
2023-01-30T09:38:05.822Z,26.50
2023-01-30T09:41:33.238Z,26.00
2023-01-30T09:44:45.323Z,21.60
2023-01-30T09:47:57.680Z,24.80
2023-01-30T09:51:10.969Z,25.30
2023-01-30T09:54:22.308Z,26.10
2023-01-30T09:57:26.190Z,27.10
2023-01-30T10:00:35.657Z,22.10
2023-01-30T10:03:50.247Z,25.10
2023-01-30T10:07:14.884Z,25.90
2023-01-30T10:10:34.900Z,23.30
2023-01-30T10:13:59.304Z,25.30
2023-01-30T10:17:21.423Z,24.40
2023-01-30T10:21:09.478Z,19.50
2023-01-30T10:24:40.630Z,21.00
2023-01-30T10:27:57.959Z,26.70
2023-01-30T10:31:08.824Z,25.30
2023-01-30T10:34:19.639Z,25.30
2023-01-30T10:37:41.974Z,22.70
2023-01-30T10:40:54.376Z,21.40
2023-01-30T10:47:16.289Z,21.30
2023-01-30T10:50:34.660Z,23.80
2023-01-30T10:53:48.486Z,29.00
2023-01-30T10:57:11.630Z,23.80
2023-01-30T11:00:49.865Z,26.20
2023-01-30T11:04:07.443Z,23.90
2023-01-30T11:07:13.461Z,24.40
2023-01-30T11:10:26.060Z,26.40
2023-01-30T11:13:32.257Z,23.20
2023-01-30T11:17:02.688Z,24.30
2023-01-30T11:20:22.661Z,25.30
2023-01-30T11:23:31.887Z,25.40
2023-01-30T11:26:46.813Z,24.40
2023-01-30T11:30:02.366Z,23.10
2023-01-30T11:33:16.904Z,23.40
2023-01-30T11:36:29.547Z,22.00
2023-01-30T11:39:34.835Z,24.50
2023-01-30T11:42:45.138Z,25.10
2023-01-30T11:45:50.515Z,26.30
2023-01-30T11:49:04.115Z,29.20
2023-01-30T11:52:28.049Z,25.10
2023-01-30T11:55:37.026Z,24.10
2023-01-30T11:58:41.909Z,25.70
2023-01-30T12:01:45.374Z,26.30
2023-01-30T12:04:54.045Z,27.60
2023-01-30T12:08:31.175Z,24.20
2023-01-30T12:11:45.352Z,29.60
2023-01-30T12:14:50.630Z,31.70
2023-01-30T12:18:20.130Z,26.70
2023-01-30T12:21:46.515Z,29.00
2023-01-30T12:25:10.990Z,26.90
2023-01-30T12:28:30.149Z,27.00
2023-01-30T12:31:46.417Z,27.80
2023-01-30T12:34:51.192Z,27.30
2023-01-30T12:38:05.463Z,28.70
2023-01-30T12:41:23.598Z,28.00
2023-01-30T12:44:36.543Z,25.60
2023-01-30T12:47:51.966Z,24.10
2023-01-30T12:51:10.352Z,25.10
2023-01-30T12:54:39.455Z,26.80
2023-01-30T12:57:57.905Z,29.10
2023-01-30T13:01:29.813Z,29.70
2023-01-30T13:04:56.879Z,27.90
2023-01-30T13:08:23.338Z,30.40
2023-01-30T13:11:41.657Z,34.00
2023-01-30T13:15:12.312Z,32.00
2023-01-30T13:18:27.019Z,27.70
2023-01-30T13:21:34.868Z,30.20
2023-01-30T13:24:44.317Z,29.00
2023-01-30T13:27:57.558Z,25.70
2023-01-30T13:31:02.636Z,23.90
2023-01-30T13:34:12.162Z,26.50
2023-01-30T13:37:18.225Z,28.20
2023-01-30T13:40:46.110Z,34.00
2023-01-30T13:43:53.820Z,27.30
2023-01-30T13:47:00.499Z,29.90
2023-01-30T13:50:45.715Z,25.20
2023-01-30T13:54:00.990Z,30.20
2023-01-30T13:57:32.723Z,25.20
2023-01-30T14:00:36.694Z,30.00
2023-01-30T14:03:42.763Z,27.60
2023-01-30T14:06:46.526Z,27.90
2023-01-30T14:10:20.796Z,27.10
2023-01-30T14:13:26.704Z,24.80
2023-01-30T14:16:47.752Z,25.30
2023-01-30T14:20:00.558Z,27.00
2023-01-30T14:23:19.637Z,25.70
2023-01-30T14:26:49.146Z,27.80
2023-01-30T14:29:54.734Z,28.00
2023-01-30T14:33:02.968Z,25.50
2023-01-30T14:36:06.353Z,24.80
2023-01-30T14:39:38.961Z,21.00
2023-01-30T14:42:43.829Z,22.10
2023-01-30T14:45:55.344Z,18.80
2023-01-30T14:49:25.529Z,16.70
2023-01-30T14:52:39.093Z,18.00
2023-01-30T14:55:42.901Z,15.50
2023-01-30T14:58:56.873Z,16.00
2023-01-30T15:02:14.675Z,17.40
2023-01-30T15:05:27.596Z,14.80
2023-01-30T15:08:31.041Z,21.90
2023-01-30T15:11:35.505Z,20.00
2023-01-30T15:14:43.747Z,18.80
2023-01-30T15:18:31.977Z,16.40
2023-01-30T15:21:41.720Z,19.00
2023-01-30T15:25:06.794Z,16.00
2023-01-30T15:28:18.027Z,15.10
2023-01-30T15:31:25.199Z,15.30
2023-01-30T15:34:34.363Z,16.30
2023-01-30T15:37:56.329Z,14.10
2023-01-30T15:41:03.389Z,19.90
2023-01-30T15:44:30.179Z,17.20
2023-01-30T15:47:52.834Z,17.40
2023-01-30T15:50:59.674Z,15.10
2023-01-30T15:54:08.936Z,12.00
2023-01-30T15:57:20.836Z,15.60
2023-01-30T16:00:29.710Z,13.60
2023-01-30T16:03:37.817Z,13.20
2023-01-30T16:06:41.052Z,15.10
2023-01-30T16:10:06.741Z,14.00
2023-01-30T16:13:10.721Z,18.10
2023-01-30T16:16:22.691Z,21.80
2023-01-30T16:19:32.566Z,18.90
2023-01-30T16:22:36.200Z,18.10
2023-01-30T16:25:39.442Z,15.70
2023-01-30T16:28:42.689Z,13.80
2023-01-30T16:31:56.926Z,11.80
2023-01-30T16:35:27.380Z,12.60
2023-01-30T16:38:41.969Z,11.40
2023-01-30T16:41:53.938Z,10.30
2023-01-30T16:45:12.438Z,10.40
2023-01-30T16:48:19.465Z,10.30
2023-01-30T16:51:24.105Z,9.60
2023-01-30T16:54:30.769Z,9.70
2023-01-30T16:57:44.236Z,14.90
2023-01-30T17:00:50.888Z,14.20
2023-01-30T17:04:01.794Z,15.80
2023-01-30T17:07:34.741Z,13.50
2023-01-30T17:10:39.037Z,12.40
2023-01-30T17:13:46.623Z,16.90
2023-01-30T17:17:07.728Z,9.40
2023-01-30T17:20:13.706Z,11.20
2023-01-30T17:23:19.675Z,11.50
2023-01-30T17:26:22.987Z,14.00
2023-01-30T17:29:41.931Z,10.10
2023-01-30T17:32:46.188Z,11.00
2023-01-30T17:35:49.525Z,14.20
2023-01-30T17:38:54.684Z,12.80
2023-01-30T17:41:57.916Z,15.90
2023-01-30T17:45:01.118Z,14.50
2023-01-30T17:48:04.637Z,14.80
2023-01-30T17:51:08.648Z,14.10
2023-01-30T17:54:13.233Z,15.10
2023-01-30T17:57:17.018Z,16.70
2023-01-30T18:00:21.671Z,19.10
2023-01-30T18:03:25.386Z,17.50
2023-01-30T18:06:30.043Z,16.60
2023-01-30T18:09:33.352Z,19.00
2023-01-30T18:12:36.646Z,18.80
2023-01-30T18:15:39.899Z,21.00
2023-01-30T18:18:43.204Z,19.30
2023-01-30T18:21:46.442Z,21.70
2023-01-30T18:24:49.704Z,21.60
2023-01-30T18:27:52.958Z,23.00
2023-01-30T18:30:56.986Z,24.30
2023-01-30T18:34:00.464Z,18.50
2023-01-30T18:37:03.629Z,21.10
2023-01-30T18:40:08.069Z,22.90
2023-01-30T18:43:11.570Z,24.70
2023-01-30T18:46:17.281Z,23.80
2023-01-30T18:49:20.518Z,21.80
2023-01-30T18:52:23.896Z,22.80
2023-01-30T18:55:27.123Z,20.20
2023-01-30T18:58:33.869Z,21.80
2023-01-30T19:01:40.020Z,16.60
2023-01-30T19:04:43.354Z,16.10
2023-01-30T19:07:46.734Z,18.60
2023-01-30T19:10:50.163Z,15.70
2023-01-30T19:13:54.373Z,16.00
2023-01-30T19:16:57.756Z,16.20
2023-01-30T19:20:02.518Z,15.00
2023-01-30T19:23:06.656Z,15.10
2023-01-30T19:26:09.879Z,16.80
2023-01-30T19:29:13.110Z,14.20
2023-01-30T19:32:16.374Z,12.30
2023-01-30T19:35:19.836Z,13.70
2023-01-30T19:38:23.214Z,13.80
2023-01-30T19:41:28.576Z,15.00
2023-01-30T19:44:31.793Z,12.90
2023-01-30T19:47:35.093Z,14.20
2023-01-30T19:50:38.586Z,13.50
2023-01-30T19:53:43.852Z,13.10
2023-01-30T19:56:49.349Z,13.30
2023-01-30T19:59:52.610Z,12.00
2023-01-30T20:02:57.064Z,12.10
2023-01-30T20:06:21.583Z,11.60
2023-01-30T20:09:24.910Z,14.50
2023-01-30T20:12:28.301Z,12.10
2023-01-30T20:15:31.566Z,9.60
2023-01-30T20:18:37.432Z,9.50
2023-01-30T20:21:41.085Z,9.90
2023-01-30T20:24:44.416Z,12.60
2023-01-30T20:27:47.879Z,9.10
2023-01-30T20:30:54.431Z,6.50
2023-01-30T20:34:01.017Z,7.90
2023-01-30T20:37:04.373Z,10.40
2023-01-30T20:40:08.755Z,9.10
2023-01-30T20:43:12.049Z,7.00
2023-01-30T20:46:18.318Z,9.70
2023-01-30T20:49:23.397Z,7.60
2023-01-30T20:52:26.751Z,9.90
2023-01-30T20:55:30.827Z,8.40
2023-01-30T20:58:34.272Z,7.40
2023-01-30T21:01:37.757Z,10.10
2023-01-30T21:04:41.321Z,8.30
2023-01-30T21:07:44.889Z,7.90
2023-01-30T21:10:48.270Z,5.40
2023-01-30T21:13:51.726Z,10.60
2023-01-30T21:16:55.176Z,8.60
2023-01-30T21:19:58.471Z,8.20
2023-01-30T21:23:01.864Z,10.80
2023-01-30T21:26:08.023Z,10.20
2023-01-30T21:29:12.176Z,12.10
2023-01-30T21:32:15.570Z,12.90
2023-01-30T21:35:22.139Z,9.20
2023-01-30T21:38:44.915Z,15.30
2023-01-30T21:41:51.063Z,11.90
2023-01-30T21:44:54.408Z,10.00
2023-01-30T21:47:57.984Z,14.90
2023-01-30T21:51:09.969Z,15.60
2023-01-30T21:54:14.057Z,11.60
2023-01-30T21:57:17.353Z,12.70
2023-01-30T22:00:20.852Z,13.20
2023-01-30T22:03:26.971Z,10.30
2023-01-30T22:06:30.904Z,10.90
2023-01-30T22:09:34.452Z,12.80
2023-01-30T22:12:40.299Z,14.30
2023-01-30T22:15:43.566Z,11.00
2023-01-30T22:18:51.276Z,11.90
2023-01-30T22:21:55.314Z,13.20
2023-01-30T22:24:58.665Z,13.60
2023-01-30T22:28:02.263Z,11.30
2023-01-30T22:31:08.486Z,12.70
2023-01-30T22:34:14.250Z,12.60
2023-01-30T22:37:23.326Z,14.30
2023-01-30T22:40:26.582Z,14.10
2023-01-30T22:43:31.598Z,11.90
2023-01-30T22:46:38.583Z,12.10
2023-01-30T22:49:43.084Z,12.50
2023-01-30T22:52:49.608Z,12.40
2023-01-30T22:55:54.702Z,12.40
2023-01-30T22:58:59.061Z,8.20
2023-01-30T23:02:03.364Z,8.50
2023-01-30T23:05:07.446Z,9.30
2023-01-30T23:08:13.042Z,6.10
2023-01-30T23:11:20.802Z,8.40
2023-01-30T23:14:24.266Z,6.50
2023-01-30T23:17:48.905Z,7.80
2023-01-30T23:20:52.460Z,7.40
2023-01-30T23:24:04.151Z,6.80
2023-01-30T23:27:07.759Z,8.10
2023-01-30T23:30:11.620Z,7.60
2023-01-30T23:33:14.957Z,9.20
2023-01-30T23:36:19.097Z,6.70
2023-01-30T23:39:22.471Z,7.00
2023-01-30T23:42:25.938Z,9.90
2023-01-30T23:45:29.233Z,8.90
2023-01-30T23:48:32.577Z,7.10
2023-01-30T23:51:37.601Z,9.40
2023-01-30T23:54:40.755Z,5.80
2023-01-30T23:57:44.601Z,7.10
